sensor_id;sensor_type;location;lat;lon;timestamp;temperature;humidity
44855;DHT22;30591;48.228;16.398;2022-11-11T00:01:41;5.00;99.90
44855;DHT22;30591;48.228;16.398;2022-11-11T00:04:27;4.90;99.90
44855;DHT22;30591;48.228;16.398;2022-11-11T00:07:13;4.90;99.90
44855;DHT22;30591;48.228;16.398;2022-11-11T00:09:59;4.90;99.90
44855;DHT22;30591;48.228;16.398;2022-11-11T00:12:44;4.80;99.90
44855;DHT22;30591;48.228;16.398;2022-11-11T00:15:30;4.70;99.90
44855;DHT22;30591;48.228;16.398;2022-11-11T00:18:16;4.80;99.90
44855;DHT22;30591;48.228;16.398;2022-11-11T00:21:21;4.70;99.90
44855;DHT22;30591;48.228;16.398;2022-11-11T00:24:27;4.60;99.90
44855;DHT22;30591;48.228;16.398;2022-11-11T00:27:33;4.50;99.90
44855;DHT22;30591;48.228;16.398;2022-11-11T00:30:19;4.50;99.90
44855;DHT22;30591;48.228;16.398;2022-11-11T00:33:07;4.80;99.90
44855;DHT22;30591;48.228;16.398;2022-11-11T00:35:53;5.00;99.90
44855;DHT22;30591;48.228;16.398;2022-11-11T00:38:40;5.50;99.90
44855;DHT22;30591;48.228;16.398;2022-11-11T00:41:34;5.60;99.90
44855;DHT22;30591;48.228;16.398;2022-11-11T00:44:20;5.70;99.90
44855;DHT22;30591;48.228;16.398;2022-11-11T00:47:06;5.80;99.90
44855;DHT22;30591;48.228;16.398;2022-11-11T00:53:26;5.70;99.90
44855;DHT22;30591;48.228;16.398;2022-11-11T00:56:12;6.00;99.90
44855;DHT22;30591;48.228;16.398;2022-11-11T00:58:58;6.20;99.90
44855;DHT22;30591;48.228;16.398;2022-11-11T01:01:44;6.50;99.90
44855;DHT22;30591;48.228;16.398;2022-11-11T01:04:30;6.80;99.90
44855;DHT22;30591;48.228;16.398;2022-11-11T01:07:16;6.50;99.90
44855;DHT22;30591;48.228;16.398;2022-11-11T01:10:03;6.40;99.90
44855;DHT22;30591;48.228;16.398;2022-11-11T01:12:53;6.30;99.90
44855;DHT22;30591;48.228;16.398;2022-11-11T01:16:03;6.40;99.90
44855;DHT22;30591;48.228;16.398;2022-11-11T01:18:50;6.30;99.90
44855;DHT22;30591;48.228;16.398;2022-11-11T01:21:37;6.20;99.90
44855;DHT22;30591;48.228;16.398;2022-11-11T01:24:23;6.10;99.90
44855;DHT22;30591;48.228;16.398;2022-11-11T01:27:09;6.00;99.90
44855;DHT22;30591;48.228;16.398;2022-11-11T01:29:55;5.90;99.90
44855;DHT22;30591;48.228;16.398;2022-11-11T01:32:41;5.90;99.90
44855;DHT22;30591;48.228;16.398;2022-11-11T01:35:28;6.00;99.90
44855;DHT22;30591;48.228;16.398;2022-11-11T01:38:14;6.00;99.90
44855;DHT22;30591;48.228;16.398;2022-11-11T01:40:59;6.00;99.90
44855;DHT22;30591;48.228;16.398;2022-11-11T01:43:46;6.10;99.90
44855;DHT22;30591;48.228;16.398;2022-11-11T01:47:07;6.10;99.90
44855;DHT22;30591;48.228;16.398;2022-11-11T01:49:59;6.30;99.90
44855;DHT22;30591;48.228;16.398;2022-11-11T01:52:46;6.20;99.90
44855;DHT22;30591;48.228;16.398;2022-11-11T01:55:32;6.20;99.90
44855;DHT22;30591;48.228;16.398;2022-11-11T01:58:20;6.20;99.90
44855;DHT22;30591;48.228;16.398;2022-11-11T02:01:07;6.20;99.90
44855;DHT22;30591;48.228;16.398;2022-11-11T02:03:54;6.30;99.90
44855;DHT22;30591;48.228;16.398;2022-11-11T02:07:05;6.50;99.90
44855;DHT22;30591;48.228;16.398;2022-11-11T02:09:53;6.60;99.90
44855;DHT22;30591;48.228;16.398;2022-11-11T02:12:41;6.80;99.90
44855;DHT22;30591;48.228;16.398;2022-11-11T02:15:46;6.90;99.90
44855;DHT22;30591;48.228;16.398;2022-11-11T02:18:32;6.80;99.90
44855;DHT22;30591;48.228;16.398;2022-11-11T02:21:27;6.60;99.90
44855;DHT22;30591;48.228;16.398;2022-11-11T02:24:16;5.90;99.90
44855;DHT22;30591;48.228;16.398;2022-11-11T02:27:04;5.60;99.90
44855;DHT22;30591;48.228;16.398;2022-11-11T02:29:54;5.40;99.90
44855;DHT22;30591;48.228;16.398;2022-11-11T02:32:43;5.40;99.90
44855;DHT22;30591;48.228;16.398;2022-11-11T02:35:34;5.40;99.90
44855;DHT22;30591;48.228;16.398;2022-11-11T02:38:22;5.30;99.90
44855;DHT22;30591;48.228;16.398;2022-11-11T02:41:08;5.30;99.90
44855;DHT22;30591;48.228;16.398;2022-11-11T02:44:12;5.10;99.90
44855;DHT22;30591;48.228;16.398;2022-11-11T02:46:58;5.20;99.90
44855;DHT22;30591;48.228;16.398;2022-11-11T02:49:44;5.50;99.90
44855;DHT22;30591;48.228;16.398;2022-11-11T02:52:30;5.90;99.90
44855;DHT22;30591;48.228;16.398;2022-11-11T02:55:16;5.60;99.90
44855;DHT22;30591;48.228;16.398;2022-11-11T02:58:03;5.20;99.90
44855;DHT22;30591;48.228;16.398;2022-11-11T03:00:48;4.70;99.90
44855;DHT22;30591;48.228;16.398;2022-11-11T03:03:35;4.30;99.90
44855;DHT22;30591;48.228;16.398;2022-11-11T03:06:22;4.30;99.90
44855;DHT22;30591;48.228;16.398;2022-11-11T03:09:08;4.10;99.90
44855;DHT22;30591;48.228;16.398;2022-11-11T03:11:53;4.10;99.90
44855;DHT22;30591;48.228;16.398;2022-11-11T03:14:39;3.90;99.90
44855;DHT22;30591;48.228;16.398;2022-11-11T03:17:25;3.80;99.90
44855;DHT22;30591;48.228;16.398;2022-11-11T03:20:27;3.80;99.90
44855;DHT22;30591;48.228;16.398;2022-11-11T03:23:31;3.80;99.90
44855;DHT22;30591;48.228;16.398;2022-11-11T03:26:17;4.00;99.90
44855;DHT22;30591;48.228;16.398;2022-11-11T03:29:04;3.90;99.90
44855;DHT22;30591;48.228;16.398;2022-11-11T03:31:50;3.90;99.90
44855;DHT22;30591;48.228;16.398;2022-11-11T03:34:36;3.90;99.90
44855;DHT22;30591;48.228;16.398;2022-11-11T03:37:21;3.90;99.90
44855;DHT22;30591;48.228;16.398;2022-11-11T03:40:26;3.80;99.90
44855;DHT22;30591;48.228;16.398;2022-11-11T03:43:13;3.60;99.90
44855;DHT22;30591;48.228;16.398;2022-11-11T03:46:02;3.60;99.90
44855;DHT22;30591;48.228;16.398;2022-11-11T03:48:48;3.60;99.90
44855;DHT22;30591;48.228;16.398;2022-11-11T03:51:34;3.40;99.90
44855;DHT22;30591;48.228;16.398;2022-11-11T03:54:20;3.00;99.90
44855;DHT22;30591;48.228;16.398;2022-11-11T03:57:06;2.80;99.90
44855;DHT22;30591;48.228;16.398;2022-11-11T04:00:12;2.80;99.90
44855;DHT22;30591;48.228;16.398;2022-11-11T04:03:03;2.70;99.90
44855;DHT22;30591;48.228;16.398;2022-11-11T04:06:09;2.60;99.90
44855;DHT22;30591;48.228;16.398;2022-11-11T04:09:14;2.60;99.90
44855;DHT22;30591;48.228;16.398;2022-11-11T04:12:20;2.50;99.90
44855;DHT22;30591;48.228;16.398;2022-11-11T04:15:07;2.60;99.90
44855;DHT22;30591;48.228;16.398;2022-11-11T04:18:12;2.70;99.90
44855;DHT22;30591;48.228;16.398;2022-11-11T04:20:58;2.80;99.90
44855;DHT22;30591;48.228;16.398;2022-11-11T04:24:03;2.80;99.90
44855;DHT22;30591;48.228;16.398;2022-11-11T04:27:11;2.50;99.90
44855;DHT22;30591;48.228;16.398;2022-11-11T04:29:58;2.40;99.90
44855;DHT22;30591;48.228;16.398;2022-11-11T04:32:44;2.20;99.90
44855;DHT22;30591;48.228;16.398;2022-11-11T04:35:32;2.20;99.90
44855;DHT22;30591;48.228;16.398;2022-11-11T04:38:17;2.20;99.90
44855;DHT22;30591;48.228;16.398;2022-11-11T04:41:22;2.20;99.90
44855;DHT22;30591;48.228;16.398;2022-11-11T04:44:13;2.20;99.90
44855;DHT22;30591;48.228;16.398;2022-11-11T04:47:17;2.20;99.90
44855;DHT22;30591;48.228;16.398;2022-11-11T04:50:04;2.30;99.90
44855;DHT22;30591;48.228;16.398;2022-11-11T04:52:52;2.40;99.90
44855;DHT22;30591;48.228;16.398;2022-11-11T04:55:39;2.20;99.90
44855;DHT22;30591;48.228;16.398;2022-11-11T04:58:44;2.10;99.90
44855;DHT22;30591;48.228;16.398;2022-11-11T05:01:31;2.10;99.90
44855;DHT22;30591;48.228;16.398;2022-11-11T05:04:36;2.00;99.90
44855;DHT22;30591;48.228;16.398;2022-11-11T05:07:21;2.00;99.90
44855;DHT22;30591;48.228;16.398;2022-11-11T05:10:26;2.00;99.90
44855;DHT22;30591;48.228;16.398;2022-11-11T05:13:12;2.20;99.90
44855;DHT22;30591;48.228;16.398;2022-11-11T05:16:20;2.10;99.90
44855;DHT22;30591;48.228;16.398;2022-11-11T05:19:26;2.00;99.90
44855;DHT22;30591;48.228;16.398;2022-11-11T05:22:36;2.20;99.90
44855;DHT22;30591;48.228;16.398;2022-11-11T05:25:23;2.20;99.90
44855;DHT22;30591;48.228;16.398;2022-11-11T05:28:13;2.10;99.90
44855;DHT22;30591;48.228;16.398;2022-11-11T05:30:59;2.10;99.90
44855;DHT22;30591;48.228;16.398;2022-11-11T05:33:45;2.00;99.90
44855;DHT22;30591;48.228;16.398;2022-11-11T05:36:31;2.00;99.90
44855;DHT22;30591;48.228;16.398;2022-11-11T05:39:18;1.90;99.90
44855;DHT22;30591;48.228;16.398;2022-11-11T05:42:04;1.90;99.90
44855;DHT22;30591;48.228;16.398;2022-11-11T05:44:50;1.80;99.90
44855;DHT22;30591;48.228;16.398;2022-11-11T05:47:36;1.80;99.90
44855;DHT22;30591;48.228;16.398;2022-11-11T05:50:22;1.80;99.90
44855;DHT22;30591;48.228;16.398;2022-11-11T05:53:08;1.90;99.90
44855;DHT22;30591;48.228;16.398;2022-11-11T05:55:53;1.90;99.90
44855;DHT22;30591;48.228;16.398;2022-11-11T05:58:39;2.00;99.90
44855;DHT22;30591;48.228;16.398;2022-11-11T06:01:25;2.00;99.90
44855;DHT22;30591;48.228;16.398;2022-11-11T06:04:11;2.00;99.90
44855;DHT22;30591;48.228;16.398;2022-11-11T06:07:03;2.00;99.90
44855;DHT22;30591;48.228;16.398;2022-11-11T06:09:49;2.10;99.90
44855;DHT22;30591;48.228;16.398;2022-11-11T06:12:41;2.30;99.90
44855;DHT22;30591;48.228;16.398;2022-11-11T06:15:46;2.30;99.90
44855;DHT22;30591;48.228;16.398;2022-11-11T06:18:32;2.30;99.90
44855;DHT22;30591;48.228;16.398;2022-11-11T06:21:18;2.40;99.90
44855;DHT22;30591;48.228;16.398;2022-11-11T06:24:04;2.50;99.90
44855;DHT22;30591;48.228;16.398;2022-11-11T06:26:50;2.60;99.90
44855;DHT22;30591;48.228;16.398;2022-11-11T06:29:36;2.60;99.90
44855;DHT22;30591;48.228;16.398;2022-11-11T06:32:22;2.60;99.90
44855;DHT22;30591;48.228;16.398;2022-11-11T06:35:08;2.70;99.90
44855;DHT22;30591;48.228;16.398;2022-11-11T06:37:54;2.70;99.90
44855;DHT22;30591;48.228;16.398;2022-11-11T06:40:42;2.80;99.90
44855;DHT22;30591;48.228;16.398;2022-11-11T06:43:28;2.80;99.90
44855;DHT22;30591;48.228;16.398;2022-11-11T06:46:32;2.90;99.90
44855;DHT22;30591;48.228;16.398;2022-11-11T06:49:18;3.10;99.90
44855;DHT22;30591;48.228;16.398;2022-11-11T06:52:04;3.20;99.90
44855;DHT22;30591;48.228;16.398;2022-11-11T06:54:50;3.30;99.90
44855;DHT22;30591;48.228;16.398;2022-11-11T06:57:36;3.30;99.90
44855;DHT22;30591;48.228;16.398;2022-11-11T07:00:21;3.30;99.90
44855;DHT22;30591;48.228;16.398;2022-11-11T07:03:10;3.30;99.90
44855;DHT22;30591;48.228;16.398;2022-11-11T07:05:56;3.30;99.90
44855;DHT22;30591;48.228;16.398;2022-11-11T07:08:44;3.40;99.90
44855;DHT22;30591;48.228;16.398;2022-11-11T07:11:30;3.30;99.90
44855;DHT22;30591;48.228;16.398;2022-11-11T07:14:16;3.60;99.90
44855;DHT22;30591;48.228;16.398;2022-11-11T07:17:02;3.70;99.90
44855;DHT22;30591;48.228;16.398;2022-11-11T07:19:50;4.00;99.90
44855;DHT22;30591;48.228;16.398;2022-11-11T07:22:36;4.20;99.90
44855;DHT22;30591;48.228;16.398;2022-11-11T07:25:23;4.30;99.90
44855;DHT22;30591;48.228;16.398;2022-11-11T07:28:09;4.40;99.90
44855;DHT22;30591;48.228;16.398;2022-11-11T07:30:55;4.60;99.90
44855;DHT22;30591;48.228;16.398;2022-11-11T07:33:41;4.80;99.90
44855;DHT22;30591;48.228;16.398;2022-11-11T07:36:27;4.70;99.90
44855;DHT22;30591;48.228;16.398;2022-11-11T07:39:13;4.80;99.90
44855;DHT22;30591;48.228;16.398;2022-11-11T07:41:58;5.00;99.90
44855;DHT22;30591;48.228;16.398;2022-11-11T07:44:46;5.00;99.90
44855;DHT22;30591;48.228;16.398;2022-11-11T07:47:34;5.20;99.90
44855;DHT22;30591;48.228;16.398;2022-11-11T07:50:20;5.30;99.90
44855;DHT22;30591;48.228;16.398;2022-11-11T07:53:06;5.40;99.90
44855;DHT22;30591;48.228;16.398;2022-11-11T07:55:52;5.50;99.90
44855;DHT22;30591;48.228;16.398;2022-11-11T07:58:38;5.70;99.90
44855;DHT22;30591;48.228;16.398;2022-11-11T08:01:24;5.80;99.90
44855;DHT22;30591;48.228;16.398;2022-11-11T08:04:10;5.80;99.90
44855;DHT22;30591;48.228;16.398;2022-11-11T08:06:56;5.90;99.90
44855;DHT22;30591;48.228;16.398;2022-11-11T08:09:41;6.00;99.90
44855;DHT22;30591;48.228;16.398;2022-11-11T08:12:27;6.10;99.90
44855;DHT22;30591;48.228;16.398;2022-11-11T08:15:32;6.20;99.90
44855;DHT22;30591;48.228;16.398;2022-11-11T08:18:18;6.20;99.90
44855;DHT22;30591;48.228;16.398;2022-11-11T08:21:05;6.30;99.90
44855;DHT22;30591;48.228;16.398;2022-11-11T08:23:53;6.40;99.90
44855;DHT22;30591;48.228;16.398;2022-11-11T08:26:59;6.40;99.90
44855;DHT22;30591;48.228;16.398;2022-11-11T08:29:45;6.50;99.90
44855;DHT22;30591;48.228;16.398;2022-11-11T08:32:30;6.60;99.90
44855;DHT22;30591;48.228;16.398;2022-11-11T08:35:16;6.70;99.90
44855;DHT22;30591;48.228;16.398;2022-11-11T08:38:02;6.80;99.90
44855;DHT22;30591;48.228;16.398;2022-11-11T08:40:49;6.80;99.90
44855;DHT22;30591;48.228;16.398;2022-11-11T08:43:36;6.90;99.90
44855;DHT22;30591;48.228;16.398;2022-11-11T08:46:23;6.90;99.90
44855;DHT22;30591;48.228;16.398;2022-11-11T08:49:09;7.00;99.90
44855;DHT22;30591;48.228;16.398;2022-11-11T08:51:56;7.10;99.90
44855;DHT22;30591;48.228;16.398;2022-11-11T08:54:42;7.20;99.90
44855;DHT22;30591;48.228;16.398;2022-11-11T08:57:28;7.20;99.90
44855;DHT22;30591;48.228;16.398;2022-11-11T09:00:14;7.40;99.90
44855;DHT22;30591;48.228;16.398;2022-11-11T09:03:02;7.60;99.90
44855;DHT22;30591;48.228;16.398;2022-11-11T09:05:49;7.70;99.90
44855;DHT22;30591;48.228;16.398;2022-11-11T09:08:35;7.70;99.90
44855;DHT22;30591;48.228;16.398;2022-11-11T09:11:21;7.90;99.90
44855;DHT22;30591;48.228;16.398;2022-11-11T09:14:07;8.00;99.90
44855;DHT22;30591;48.228;16.398;2022-11-11T09:16:53;8.10;99.90
44855;DHT22;30591;48.228;16.398;2022-11-11T09:19:39;8.20;99.90
44855;DHT22;30591;48.228;16.398;2022-11-11T09:22:25;8.40;99.90
44855;DHT22;30591;48.228;16.398;2022-11-11T09:25:11;8.30;99.90
44855;DHT22;30591;48.228;16.398;2022-11-11T09:27:59;8.30;99.90
44855;DHT22;30591;48.228;16.398;2022-11-11T09:30:45;8.50;99.90
44855;DHT22;30591;48.228;16.398;2022-11-11T09:33:31;8.80;99.90
44855;DHT22;30591;48.228;16.398;2022-11-11T09:36:18;8.80;99.90
44855;DHT22;30591;48.228;16.398;2022-11-11T09:39:05;8.90;99.90
44855;DHT22;30591;48.228;16.398;2022-11-11T09:41:59;9.10;99.90
44855;DHT22;30591;48.228;16.398;2022-11-11T09:48:00;9.40;99.90
44855;DHT22;30591;48.228;16.398;2022-11-11T09:50:57;9.50;99.90
44855;DHT22;30591;48.228;16.398;2022-11-11T09:53:49;9.60;99.90
44855;DHT22;30591;48.228;16.398;2022-11-11T09:56:37;9.70;99.90
44855;DHT22;30591;48.228;16.398;2022-11-11T09:59:29;9.80;99.90
44855;DHT22;30591;48.228;16.398;2022-11-11T10:05:36;10.10;99.90
44855;DHT22;30591;48.228;16.398;2022-11-11T10:08:35;10.20;99.90
44855;DHT22;30591;48.228;16.398;2022-11-11T10:12:02;10.70;99.90
44855;DHT22;30591;48.228;16.398;2022-11-11T10:14:50;10.90;99.90
44855;DHT22;30591;48.228;16.398;2022-11-11T10:20:39;13.50;99.90
44855;DHT22;30591;48.228;16.398;2022-11-11T10:23:35;15.00;99.90
44855;DHT22;30591;48.228;16.398;2022-11-11T10:26:48;16.40;99.90
44855;DHT22;30591;48.228;16.398;2022-11-11T10:29:40;16.60;99.90
44855;DHT22;30591;48.228;16.398;2022-11-11T10:32:32;17.20;99.90
44855;DHT22;30591;48.228;16.398;2022-11-11T10:35:22;17.60;99.90
44855;DHT22;30591;48.228;16.398;2022-11-11T10:38:51;18.10;99.90
44855;DHT22;30591;48.228;16.398;2022-11-11T10:41:45;18.80;99.90
44855;DHT22;30591;48.228;16.398;2022-11-11T10:44:32;18.70;99.90
44855;DHT22;30591;48.228;16.398;2022-11-11T10:53:40;19.60;99.90
44855;DHT22;30591;48.228;16.398;2022-11-11T10:59:37;20.00;99.90
44855;DHT22;30591;48.228;16.398;2022-11-11T11:02:32;19.20;99.90
44855;DHT22;30591;48.228;16.398;2022-11-11T11:05:30;19.60;99.90
44855;DHT22;30591;48.228;16.398;2022-11-11T11:08:25;19.70;99.90
44855;DHT22;30591;48.228;16.398;2022-11-11T11:11:20;17.80;99.90
44855;DHT22;30591;48.228;16.398;2022-11-11T11:14:43;17.00;99.90
44855;DHT22;30591;48.228;16.398;2022-11-11T11:20:59;18.60;99.90
44855;DHT22;30591;48.228;16.398;2022-11-11T11:23:46;19.10;99.90
44855;DHT22;30591;48.228;16.398;2022-11-11T11:26:46;19.90;99.90
44855;DHT22;30591;48.228;16.398;2022-11-11T11:29:37;19.60;99.90
44855;DHT22;30591;48.228;16.398;2022-11-11T11:32:29;19.90;99.90
44855;DHT22;30591;48.228;16.398;2022-11-11T11:35:39;18.90;99.90
44855;DHT22;30591;48.228;16.398;2022-11-11T11:38:43;17.30;99.90
44855;DHT22;30591;48.228;16.398;2022-11-11T11:41:38;18.00;99.90
44855;DHT22;30591;48.228;16.398;2022-11-11T11:44:33;17.60;99.90
44855;DHT22;30591;48.228;16.398;2022-11-11T11:59:07;14.70;99.90
44855;DHT22;30591;48.228;16.398;2022-11-11T12:02:28;14.60;99.90
44855;DHT22;30591;48.228;16.398;2022-11-11T12:05:26;14.40;99.90
44855;DHT22;30591;48.228;16.398;2022-11-11T12:14:51;15.30;99.90
44855;DHT22;30591;48.228;16.398;2022-11-11T12:20:54;16.80;99.90
44855;DHT22;30591;48.228;16.398;2022-11-11T12:27:29;17.10;99.90
44855;DHT22;30591;48.228;16.398;2022-11-11T12:30:24;16.40;99.90
44855;DHT22;30591;48.228;16.398;2022-11-11T12:40:05;13.80;99.90
44855;DHT22;30591;48.228;16.398;2022-11-11T12:43:28;13.50;99.90
44855;DHT22;30591;48.228;16.398;2022-11-11T12:56:04;13.20;99.90
44855;DHT22;30591;48.228;16.398;2022-11-11T12:59:07;13.00;99.90
44855;DHT22;30591;48.228;16.398;2022-11-11T13:02:19;13.10;99.90
44855;DHT22;30591;48.228;16.398;2022-11-11T13:05:48;13.00;99.90
44855;DHT22;30591;48.228;16.398;2022-11-11T13:14:46;12.50;99.90
44855;DHT22;30591;48.228;16.398;2022-11-11T13:17:33;12.40;99.90
44855;DHT22;30591;48.228;16.398;2022-11-11T13:20:45;12.20;99.90
44855;DHT22;30591;48.228;16.398;2022-11-11T13:23:34;12.30;99.90
44855;DHT22;30591;48.228;16.398;2022-11-11T13:26:27;12.40;99.90
44855;DHT22;30591;48.228;16.398;2022-11-11T13:32:17;12.40;99.90
44855;DHT22;30591;48.228;16.398;2022-11-11T13:35:35;12.50;99.90
44855;DHT22;30591;48.228;16.398;2022-11-11T13:38:33;12.20;99.90
44855;DHT22;30591;48.228;16.398;2022-11-11T13:41:27;12.20;99.90
44855;DHT22;30591;48.228;16.398;2022-11-11T13:44:47;12.20;99.90
44855;DHT22;30591;48.228;16.398;2022-11-11T13:47:39;12.10;99.90
44855;DHT22;30591;48.228;16.398;2022-11-11T13:50:35;12.20;99.90
44855;DHT22;30591;48.228;16.398;2022-11-11T13:53:31;12.10;99.90
44855;DHT22;30591;48.228;16.398;2022-11-11T13:59:27;12.20;99.90
44855;DHT22;30591;48.228;16.398;2022-11-11T14:07:55;12.30;99.90
44855;DHT22;30591;48.228;16.398;2022-11-11T14:10:54;12.20;99.90
44855;DHT22;30591;48.228;16.398;2022-11-11T14:13:41;12.10;99.90
44855;DHT22;30591;48.228;16.398;2022-11-11T14:22:31;12.10;99.90
44855;DHT22;30591;48.228;16.398;2022-11-11T14:25:26;11.90;99.90
44855;DHT22;30591;48.228;16.398;2022-11-11T14:28:25;11.90;99.90
44855;DHT22;30591;48.228;16.398;2022-11-11T14:37:11;11.60;99.90
44855;DHT22;30591;48.228;16.398;2022-11-11T14:39:59;11.80;99.90
44855;DHT22;30591;48.228;16.398;2022-11-11T14:42:46;11.70;99.90
44855;DHT22;30591;48.228;16.398;2022-11-11T14:51:53;11.30;99.90
44855;DHT22;30591;48.228;16.398;2022-11-11T14:55:04;11.10;99.90
44855;DHT22;30591;48.228;16.398;2022-11-11T15:01:02;11.00;99.90
44855;DHT22;30591;48.228;16.398;2022-11-11T15:03:51;10.80;99.90
44855;DHT22;30591;48.228;16.398;2022-11-11T15:06:59;10.70;99.90
44855;DHT22;30591;48.228;16.398;2022-11-11T15:25:29;9.80;99.90
44855;DHT22;30591;48.228;16.398;2022-11-11T15:34:52;9.30;99.90
44855;DHT22;30591;48.228;16.398;2022-11-11T15:37:48;9.10;99.90
44855;DHT22;30591;48.228;16.398;2022-11-11T15:40:49;9.00;99.90
44855;DHT22;30591;48.228;16.398;2022-11-11T15:43:38;8.80;99.90
44855;DHT22;30591;48.228;16.398;2022-11-11T15:46:27;8.70;99.90
44855;DHT22;30591;48.228;16.398;2022-11-11T15:49:44;8.60;99.90
44855;DHT22;30591;48.228;16.398;2022-11-11T15:52:33;8.50;99.90
44855;DHT22;30591;48.228;16.398;2022-11-11T15:55:32;8.40;99.90
44855;DHT22;30591;48.228;16.398;2022-11-11T15:58:27;8.40;99.90
44855;DHT22;30591;48.228;16.398;2022-11-11T16:01:14;8.00;99.90
44855;DHT22;30591;48.228;16.398;2022-11-11T16:04:00;8.00;99.90
44855;DHT22;30591;48.228;16.398;2022-11-11T16:06:47;7.70;99.90
44855;DHT22;30591;48.228;16.398;2022-11-11T16:09:37;7.50;99.90
44855;DHT22;30591;48.228;16.398;2022-11-11T16:12:32;7.50;99.90
44855;DHT22;30591;48.228;16.398;2022-11-11T16:18:35;7.50;99.90
44855;DHT22;30591;48.228;16.398;2022-11-11T16:24:29;7.40;99.90
44855;DHT22;30591;48.228;16.398;2022-11-11T16:27:18;7.40;99.90
44855;DHT22;30591;48.228;16.398;2022-11-11T16:30:32;7.10;99.90
44855;DHT22;30591;48.228;16.398;2022-11-11T16:33:32;7.00;99.90
44855;DHT22;30591;48.228;16.398;2022-11-11T16:36:18;7.00;99.90
44855;DHT22;30591;48.228;16.398;2022-11-11T16:39:18;6.90;99.90
44855;DHT22;30591;48.228;16.398;2022-11-11T16:42:15;6.70;99.90
44855;DHT22;30591;48.228;16.398;2022-11-11T16:45:05;6.60;99.90
44855;DHT22;30591;48.228;16.398;2022-11-11T16:48:01;6.60;99.90
44855;DHT22;30591;48.228;16.398;2022-11-11T16:51:01;6.70;99.90
44855;DHT22;30591;48.228;16.398;2022-11-11T16:53:53;6.70;99.90
44855;DHT22;30591;48.228;16.398;2022-11-11T16:57:03;6.80;99.90
44855;DHT22;30591;48.228;16.398;2022-11-11T17:00:04;6.80;99.90
44855;DHT22;30591;48.228;16.398;2022-11-11T17:03:21;6.60;99.90
44855;DHT22;30591;48.228;16.398;2022-11-11T17:06:09;6.60;99.90
44855;DHT22;30591;48.228;16.398;2022-11-11T17:08:55;6.60;99.90
44855;DHT22;30591;48.228;16.398;2022-11-11T17:11:43;6.50;99.90
44855;DHT22;30591;48.228;16.398;2022-11-11T17:14:31;6.50;99.90
44855;DHT22;30591;48.228;16.398;2022-11-11T17:17:19;6.40;99.90
44855;DHT22;30591;48.228;16.398;2022-11-11T17:20:12;6.30;99.90
44855;DHT22;30591;48.228;16.398;2022-11-11T17:22:58;6.30;99.90
44855;DHT22;30591;48.228;16.398;2022-11-11T17:25:45;6.30;99.90
44855;DHT22;30591;48.228;16.398;2022-11-11T17:28:34;6.20;99.90
44855;DHT22;30591;48.228;16.398;2022-11-11T17:31:20;6.30;99.90
44855;DHT22;30591;48.228;16.398;2022-11-11T17:34:09;6.30;99.90
44855;DHT22;30591;48.228;16.398;2022-11-11T17:36:55;6.40;99.90
44855;DHT22;30591;48.228;16.398;2022-11-11T17:39:41;6.40;99.90
44855;DHT22;30591;48.228;16.398;2022-11-11T17:42:31;6.50;99.90
44855;DHT22;30591;48.228;16.398;2022-11-11T17:45:17;6.50;99.90
44855;DHT22;30591;48.228;16.398;2022-11-11T17:48:04;6.40;99.90
44855;DHT22;30591;48.228;16.398;2022-11-11T17:50:51;6.40;99.90
44855;DHT22;30591;48.228;16.398;2022-11-11T17:53:37;6.30;99.90
44855;DHT22;30591;48.228;16.398;2022-11-11T17:56:24;6.40;99.90
44855;DHT22;30591;48.228;16.398;2022-11-11T17:59:12;6.40;99.90
44855;DHT22;30591;48.228;16.398;2022-11-11T18:01:59;6.30;99.90
44855;DHT22;30591;48.228;16.398;2022-11-11T18:04:46;6.20;99.90
44855;DHT22;30591;48.228;16.398;2022-11-11T18:07:32;6.10;99.90
44855;DHT22;30591;48.228;16.398;2022-11-11T18:10:19;6.00;99.90
44855;DHT22;30591;48.228;16.398;2022-11-11T18:13:04;6.00;99.90
44855;DHT22;30591;48.228;16.398;2022-11-11T18:15:50;6.00;99.90
44855;DHT22;30591;48.228;16.398;2022-11-11T18:18:36;6.00;99.90
44855;DHT22;30591;48.228;16.398;2022-11-11T18:21:25;5.90;99.90
44855;DHT22;30591;48.228;16.398;2022-11-11T18:24:11;5.80;99.90
44855;DHT22;30591;48.228;16.398;2022-11-11T18:26:57;5.70;99.90
44855;DHT22;30591;48.228;16.398;2022-11-11T18:29:42;5.60;99.90
44855;DHT22;30591;48.228;16.398;2022-11-11T18:32:28;5.50;99.90
44855;DHT22;30591;48.228;16.398;2022-11-11T18:35:14;5.50;99.90
44855;DHT22;30591;48.228;16.398;2022-11-11T18:38:02;5.60;99.90
44855;DHT22;30591;48.228;16.398;2022-11-11T18:40:47;5.60;99.90
44855;DHT22;30591;48.228;16.398;2022-11-11T18:43:41;5.60;99.90
44855;DHT22;30591;48.228;16.398;2022-11-11T18:46:30;5.50;99.90
44855;DHT22;30591;48.228;16.398;2022-11-11T18:49:16;5.40;99.90
44855;DHT22;30591;48.228;16.398;2022-11-11T18:52:02;5.50;99.90
44855;DHT22;30591;48.228;16.398;2022-11-11T18:54:49;5.60;99.90
44855;DHT22;30591;48.228;16.398;2022-11-11T18:57:35;5.70;99.90
44855;DHT22;30591;48.228;16.398;2022-11-11T19:00:21;6.10;99.90
44855;DHT22;30591;48.228;16.398;2022-11-11T19:03:07;7.00;99.90
44855;DHT22;30591;48.228;16.398;2022-11-11T19:05:53;7.50;99.90
44855;DHT22;30591;48.228;16.398;2022-11-11T19:08:43;7.80;99.90
44855;DHT22;30591;48.228;16.398;2022-11-11T19:11:30;8.00;99.90
44855;DHT22;30591;48.228;16.398;2022-11-11T19:14:18;8.30;99.90
44855;DHT22;30591;48.228;16.398;2022-11-11T19:17:07;8.20;99.90
44855;DHT22;30591;48.228;16.398;2022-11-11T19:19:54;8.30;99.90
44855;DHT22;30591;48.228;16.398;2022-11-11T19:22:40;8.30;99.90
44855;DHT22;30591;48.228;16.398;2022-11-11T19:25:26;8.20;99.90
44855;DHT22;30591;48.228;16.398;2022-11-11T19:28:12;8.10;99.90
44855;DHT22;30591;48.228;16.398;2022-11-11T19:31:19;8.10;99.90
44855;DHT22;30591;48.228;16.398;2022-11-11T19:34:08;8.00;99.90
44855;DHT22;30591;48.228;16.398;2022-11-11T19:36:55;8.00;99.90
44855;DHT22;30591;48.228;16.398;2022-11-11T19:39:41;8.00;99.90
44855;DHT22;30591;48.228;16.398;2022-11-11T19:42:27;8.00;99.90
44855;DHT22;30591;48.228;16.398;2022-11-11T19:45:13;7.90;99.90
44855;DHT22;30591;48.228;16.398;2022-11-11T19:47:59;7.90;99.90
44855;DHT22;30591;48.228;16.398;2022-11-11T19:50:45;7.70;99.90
44855;DHT22;30591;48.228;16.398;2022-11-11T19:53:31;7.60;99.90
44855;DHT22;30591;48.228;16.398;2022-11-11T19:56:19;7.80;99.90
44855;DHT22;30591;48.228;16.398;2022-11-11T19:59:05;7.80;99.90
44855;DHT22;30591;48.228;16.398;2022-11-11T20:01:51;7.90;99.90
44855;DHT22;30591;48.228;16.398;2022-11-11T20:04:38;7.80;99.90
44855;DHT22;30591;48.228;16.398;2022-11-11T20:07:24;7.80;99.90
44855;DHT22;30591;48.228;16.398;2022-11-11T20:10:10;7.80;99.90
44855;DHT22;30591;48.228;16.398;2022-11-11T20:12:56;7.80;99.90